Time;durP1;ratioP1;P1;durP2;ratioP2;P2;SDS_P1;SDS_P2;PMS_P1;PMS_P2;Temp;Humidity;BMP_temperature;BMP_pressure;BME280_temperature;BME280_humidity;BME280_pressure;Samples;Min_cycle;Max_cycle;Signal;HPM_P1;HPM_P2
2021/01/30 00:00:08;;;;;;;5.38;1.10;;;5.70;99.90;;;;;;5033489;28;20548;-82
2021/01/30 00:02:34;;;;;;;2.65;1.40;;;5.70;99.90;;;;;;5033423;28;20033;-82
2021/01/30 00:05:00;;;;;;;5.03;1.52;;;5.70;99.90;;;;;;5033458;28;20017;-82
2021/01/30 00:07:26;;;;;;;3.88;1.17;;;5.70;99.90;;;;;;5032192;28;20018;-82
2021/01/30 00:09:52;;;;;;;2.80;1.10;;;5.70;99.90;;;;;;5032153;28;20075;-82
2021/01/30 00:12:18;;;;;;;5.90;1.40;;;5.70;99.90;;;;;;5032067;28;20508;-82
2021/01/30 00:14:44;;;;;;;5.00;1.38;;;5.70;99.90;;;;;;5033362;28;20051;-82
2021/01/30 00:17:09;;;;;;;2.92;1.30;;;5.70;99.90;;;;;;5032078;28;20029;-82
2021/01/30 00:19:36;;;;;;;3.58;1.10;;;5.70;99.90;;;;;;5032230;28;20056;-82
2021/01/30 00:22:12;;;;;;;2.55;1.23;;;5.60;99.90;;;;;;5035303;28;20048;-82
2021/01/30 00:24:46;;;;;;;3.92;1.00;;;5.60;99.90;;;;;;5053195;28;20017;-82
2021/01/30 00:27:14;;;;;;;7.25;1.13;;;5.60;99.90;;;;;;5035335;28;20075;-82
2021/01/30 00:29:41;;;;;;;3.80;1.30;;;5.60;99.90;;;;;;5035233;28;20040;-83
2021/01/30 00:32:08;;;;;;;2.88;1.23;;;5.50;99.90;;;;;;5053396;28;20021;-82
2021/01/30 00:34:35;;;;;;;2.38;1.00;;;5.50;99.90;;;;;;5053129;28;20025;-82
2021/01/30 00:37:12;;;;;;;3.72;1.25;;;5.50;99.90;;;;;;5035464;28;20033;-82
2021/01/30 00:39:38;;;;;;;6.57;1.25;;;5.50;99.90;;;;;;5035035;28;20021;-82
2021/01/30 00:42:06;;;;;;;6.28;1.27;;;5.50;99.90;;;;;;5035128;28;20029;-82
2021/01/30 00:44:32;;;;;;;3.33;1.08;;;5.50;99.90;;;;;;5053024;28;20032;-82
2021/01/30 00:46:59;;;;;;;3.33;1.10;;;5.50;99.90;;;;;;5035123;28;20025;-82
2021/01/30 00:49:25;;;;;;;4.05;1.10;;;5.40;99.90;;;;;;5035146;28;20033;-82
2021/01/30 00:51:51;;;;;;;1.90;1.02;;;5.40;99.90;;;;;;5035015;28;20551;-82
2021/01/30 00:54:18;;;;;;;3.00;0.90;;;5.40;99.90;;;;;;5035001;28;20033;-82
2021/01/30 00:56:51;;;;;;;4.03;0.90;;;5.40;99.90;;;;;;5053161;28;20062;-82
2021/01/30 00:59:17;;;;;;;2.83;0.80;;;5.40;99.90;;;;;;5034899;28;20480;-82
2021/01/30 01:01:43;;;;;;;4.93;1.17;;;5.40;99.90;;;;;;5037265;28;20029;-82
2021/01/30 01:04:09;;;;;;;3.38;1.00;;;5.30;99.90;;;;;;5038687;28;20063;-82
2021/01/30 01:06:35;;;;;;;2.08;0.77;;;5.30;99.90;;;;;;5038555;28;20029;-82
2021/01/30 01:09:03;;;;;;;2.65;0.95;;;5.30;99.90;;;;;;5056286;28;20029;-82
2021/01/30 01:11:29;;;;;;;3.78;1.10;;;5.30;99.90;;;;;;5038487;28;20025;-82
2021/01/30 01:13:54;;;;;;;2.78;0.80;;;5.30;99.90;;;;;;5038563;28;20503;-82
2021/01/30 01:16:20;;;;;;;1.58;0.68;;;5.30;99.90;;;;;;5038492;28;20052;-82
2021/01/30 01:18:47;;;;;;;2.35;0.90;;;5.30;99.90;;;;;;5038244;28;20090;-82
2021/01/30 01:21:13;;;;;;;2.20;1.20;;;5.30;99.90;;;;;;5056049;28;20488;-82
2021/01/30 01:23:43;;;;;;;2.03;0.98;;;5.30;99.90;;;;;;5038304;28;20473;-82
2021/01/30 01:26:10;;;;;;;1.33;0.90;;;5.30;99.90;;;;;;5038236;28;20111;-82
2021/01/30 01:28:36;;;;;;;2.78;0.82;;;5.30;99.90;;;;;;5038180;28;20082;-82
2021/01/30 01:31:03;;;;;;;3.22;1.20;;;5.30;99.90;;;;;;5038135;28;20388;-82
2021/01/30 01:33:29;;;;;;;2.10;1.13;;;5.30;99.90;;;;;;5038060;28;20389;-82
2021/01/30 01:35:54;;;;;;;0.80;0.80;;;5.20;99.90;;;;;;5056129;28;20032;-82
2021/01/30 01:38:21;;;;;;;2.45;1.00;;;5.20;99.90;;;;;;5037591;28;20025;-82
2021/01/30 01:40:47;;;;;;;1.85;0.90;;;5.20;99.90;;;;;;5037718;28;20029;-82
2021/01/30 01:43:18;;;;;;;3.47;0.93;;;5.20;99.90;;;;;;5037923;28;20021;-82
2021/01/30 01:46:12;;;;;;;2.00;1.20;;;5.20;99.90;;;;;;5037917;28;20473;-82
2021/01/30 01:48:51;;;;;;;1.83;0.60;;;5.20;99.90;;;;;;5055710;28;20013;-82
2021/01/30 01:51:32;;;;;;;2.10;0.98;;;5.10;99.90;;;;;;5037742;28;20021;-82
2021/01/30 01:54:03;;;;;;;2.13;0.82;;;5.10;99.90;;;;;;5055827;28;20020;-83
2021/01/30 01:56:33;;;;;;;1.30;0.68;;;5.10;99.90;;;;;;5037644;28;20439;-82
2021/01/30 01:59:05;;;;;;;2.58;1.35;;;5.10;99.90;;;;;;5037479;28;20061;-82
2021/01/30 02:01:34;;;;;;;1.15;0.68;;;5.10;99.90;;;;;;5055798;28;20025;-82
2021/01/30 02:04:01;;;;;;;2.67;0.60;;;5.10;99.90;;;;;;5055351;28;20013;-82
2021/01/30 02:06:28;;;;;;;1.17;0.80;;;5.00;99.90;;;;;;5037347;28;20025;-82
2021/01/30 02:08:54;;;;;;;0.80;0.70;;;5.10;99.90;;;;;;5037417;28;20029;-82
2021/01/30 02:11:20;;;;;;;0.50;0.50;;;5.10;99.90;;;;;;5055516;28;20526;-82
2021/01/30 02:13:52;;;;;;;1.08;0.63;;;5.10;99.90;;;;;;5036324;28;20067;-82
2021/01/30 02:16:48;;;;;;;0.98;0.68;;;5.20;99.90;;;;;;5037223;28;20061;-82
2021/01/30 02:19:48;;;;;;;1.85;0.95;;;5.10;99.90;;;;;;5037111;28;20025;-82
2021/01/30 02:22:19;;;;;;;1.65;0.52;;;5.00;99.90;;;;;;5037244;28;20033;-82
2021/01/30 02:24:57;;;;;;;0.90;0.60;;;4.90;99.90;;;;;;5037161;28;20388;-82
2021/01/30 02:27:37;;;;;;;1.55;0.63;;;4.90;99.90;;;;;;5037160;28;20392;-83
2021/01/30 02:30:12;;;;;;;1.20;0.70;;;4.80;99.90;;;;;;5038235;28;20029;-82
2021/01/30 02:32:55;;;;;;;1.00;0.50;;;4.90;99.90;;;;;;5037052;28;20368;-83
2021/01/30 02:35:33;;;;;;;2.25;0.40;;;4.90;99.90;;;;;;5036985;28;20029;-82
2021/01/30 02:38:21;;;;;;;2.33;0.77;;;4.90;99.90;;;;;;5054716;28;20025;-82
2021/01/30 02:40:51;;;;;;;1.67;0.68;;;4.90;99.90;;;;;;5036730;28;20472;-83
2021/01/30 02:43:21;;;;;;;0.82;0.60;;;4.90;99.90;;;;;;5036773;28;20017;-83
2021/01/30 02:45:54;;;;;;;2.28;1.10;;;4.80;99.90;;;;;;5036742;28;20472;-82
2021/01/30 02:48:24;;;;;;;0.82;0.70;;;4.80;99.90;;;;;;5054564;28;20549;-82
2021/01/30 02:50:55;;;;;;;1.25;0.90;;;4.70;99.90;;;;;;5054478;28;20100;-82
2021/01/30 02:53:29;;;;;;;1.70;0.82;;;4.70;99.90;;;;;;5036636;28;20029;-82
2021/01/30 02:55:58;;;;;;;1.05;0.55;;;4.70;99.90;;;;;;5054540;28;20033;-83
2021/01/30 02:58:33;;;;;;;1.13;0.70;;;4.70;99.90;;;;;;5037558;28;20029;-83
2021/01/30 03:00:59;;;;;;;1.30;0.90;;;4.80;99.90;;;;;;5054330;28;20032;-83
2021/01/30 03:03:26;;;;;;;3.15;0.77;;;4.80;99.90;;;;;;5036416;28;20059;-83
2021/01/30 03:05:59;;;;;;;3.63;0.70;;;4.90;99.90;;;;;;5036217;28;20027;-82
2021/01/30 03:08:27;;;;;;;1.58;0.90;;;4.90;99.90;;;;;;5054261;28;20021;-83
2021/01/30 03:10:59;;;;;;;1.63;0.80;;;4.90;99.90;;;;;;5036271;28;20025;-83
2021/01/30 03:13:41;;;;;;;3.30;1.15;;;5.10;99.90;;;;;;5036281;28;20061;-82
2021/01/30 03:16:13;;;;;;;3.35;0.70;;;5.10;99.90;;;;;;5036205;28;20476;-82
2021/01/30 03:18:55;;;;;;;3.17;0.65;;;5.10;99.90;;;;;;5036101;28;20145;-82
2021/01/30 03:21:23;;;;;;;0.90;0.70;;;5.10;99.90;;;;;;5053797;28;20045;-82
2021/01/30 03:23:49;;;;;;;0.93;0.68;;;5.10;99.90;;;;;;5035820;28;20539;-82
2021/01/30 03:26:19;;;;;;;2.13;0.80;;;5.20;99.90;;;;;;5036046;28;20473;-82
2021/01/30 03:28:46;;;;;;;1.00;0.55;;;5.20;99.90;;;;;;5053833;28;20100;-82
2021/01/30 03:31:12;;;;;;;0.70;0.60;;;5.20;99.90;;;;;;5053781;28;20021;-82
2021/01/30 03:33:37;;;;;;;1.30;0.70;;;5.20;99.90;;;;;;5053736;28;20085;-83
2021/01/30 03:36:04;;;;;;;1.10;0.77;;;5.20;99.90;;;;;;5035827;28;20021;-83
2021/01/30 03:38:30;;;;;;;2.03;0.63;;;5.20;99.90;;;;;;5035841;28;20154;-82
2021/01/30 03:40:56;;;;;;;0.90;0.70;;;5.10;99.90;;;;;;5053585;28;20108;-83
2021/01/30 03:43:21;;;;;;;0.93;0.70;;;5.10;99.90;;;;;;5053665;28;20381;-82
2021/01/30 03:45:47;;;;;;;2.45;0.68;;;5.10;99.90;;;;;;5053567;28;20059;-83
2021/01/30 03:48:13;;;;;;;1.75;0.60;;;5.10;99.90;;;;;;5035824;28;20017;-83
2021/01/30 03:50:39;;;;;;;0.95;0.90;;;5.10;99.90;;;;;;5053766;28;20039;-83
2021/01/30 03:53:07;;;;;;;3.00;0.80;;;5.20;99.90;;;;;;5035635;28;20021;-83
2021/01/30 03:55:33;;;;;;;3.65;0.70;;;5.20;99.90;;;;;;5035647;28;20083;-83
2021/01/30 03:57:59;;;;;;;1.33;0.80;;;5.20;99.90;;;;;;5035589;28;20029;-83
2021/01/30 04:00:25;;;;;;;4.07;0.80;;;5.20;99.90;;;;;;5053356;28;20029;-83
2021/01/30 04:02:51;;;;;;;1.70;0.80;;;5.20;99.90;;;;;;5053421;28;20027;-83
2021/01/30 04:05:23;;;;;;;6.88;2.08;;;5.20;99.90;;;;;;5035500;28;20380;-83
2021/01/30 04:07:50;;;;;;;6.95;1.08;;;5.20;99.90;;;;;;5035506;28;20052;-83
2021/01/30 04:10:21;;;;;;;3.08;1.10;;;5.20;99.90;;;;;;5035513;28;20472;-83
2021/01/30 04:12:47;;;;;;;3.95;0.93;;;5.20;99.90;;;;;;5035464;28;20032;-81
2021/01/30 04:15:20;;;;;;;4.57;1.13;;;5.20;99.90;;;;;;5035418;28;20392;-81
2021/01/30 04:17:46;;;;;;;1.05;0.68;;;5.20;99.90;;;;;;5035461;28;20052;-82
2021/01/30 04:20:12;;;;;;;4.30;1.20;;;5.20;99.90;;;;;;5035120;28;20483;-81
2021/01/30 04:22:38;;;;;;;5.72;1.30;;;5.30;99.90;;;;;;5035312;28;20426;-82
2021/01/30 04:25:05;;;;;;;4.70;1.30;;;5.20;99.90;;;;;;5035317;28;20121;-82
2021/01/30 04:27:31;;;;;;;6.78;1.00;;;5.20;99.90;;;;;;5053069;28;20028;-82
2021/01/30 04:29:57;;;;;;;3.88;1.08;;;5.20;99.90;;;;;;5035328;28;20029;-82
2021/01/30 04:32:24;;;;;;;8.90;1.20;;;5.20;99.90;;;;;;5035248;28;20477;-82
2021/01/30 04:34:49;;;;;;;5.50;1.45;;;5.10;99.90;;;;;;5035319;28;20036;-82
2021/01/30 04:37:15;;;;;;;5.47;1.48;;;5.10;99.90;;;;;;5056366;28;20029;-82
2021/01/30 04:39:41;;;;;;;8.65;1.40;;;5.10;99.90;;;;;;5056994;28;20025;-82
2021/01/30 04:42:41;;;;;;;8.68;1.00;;;5.20;99.90;;;;;;5057267;28;20028;-82
2021/01/30 04:45:43;;;;;;;9.85;1.77;;;5.10;99.90;;;;;;5056819;28;20379;-82
2021/01/30 04:48:46;;;;;;;8.63;1.40;;;5.10;99.90;;;;;;5057159;28;20029;-82
2021/01/30 04:51:30;;;;;;;6.93;1.27;;;5.20;99.90;;;;;;5001612;28;20129;-82
2021/01/30 04:54:29;;;;;;;10.75;1.50;;;5.20;99.90;;;;;;5057063;28;20017;-82
2021/01/30 04:57:10;;;;;;;11.77;1.63;;;5.20;99.90;;;;;;5038806;28;20029;-81
2021/01/30 05:00:01;;;;;;;8.57;1.65;;;5.10;99.90;;;;;;5056595;28;20025;-82
2021/01/30 05:02:35;;;;;;;9.68;2.03;;;5.10;99.90;;;;;;5039228;28;20056;-82
2021/01/30 05:05:04;;;;;;;6.05;1.63;;;5.10;99.90;;;;;;5038695;28;20021;-82
2021/01/30 05:07:40;;;;;;;12.30;1.92;;;5.10;99.90;;;;;;5056439;28;20024;-81
2021/01/30 05:10:18;;;;;;;9.60;1.50;;;5.10;99.90;;;;;;5038629;28;20044;-82
2021/01/30 05:12:50;;;;;;;12.60;1.92;;;5.10;99.90;;;;;;5038461;28;20025;-82
2021/01/30 05:15:31;;;;;;;10.65;1.80;;;5.20;99.90;;;;;;5038446;28;20025;-81
2021/01/30 05:18:05;;;;;;;7.35;1.83;;;5.20;99.90;;;;;;5038401;28;20021;-82
2021/01/30 05:20:35;;;;;;;12.02;2.25;;;5.10;99.90;;;;;;5038099;28;20041;-81
2021/01/30 05:23:04;;;;;;;13.43;1.92;;;5.20;99.90;;;;;;5056215;28;20033;-81
2021/01/30 05:25:30;;;;;;;16.60;2.38;;;5.10;99.90;;;;;;5056105;28;20059;-81
2021/01/30 05:28:20;;;;;;;10.73;2.00;;;5.20;99.90;;;;;;5038161;28;20425;-81
2021/01/30 05:30:53;;;;;;;16.65;2.05;;;5.10;99.90;;;;;;5038261;28;20427;-82
2021/01/30 05:33:22;;;;;;;11.40;2.00;;;5.20;99.90;;;;;;5038116;28;20025;-81
2021/01/30 05:35:53;;;;;;;13.70;2.05;;;5.10;99.90;;;;;;5037963;28;20036;-82
2021/01/30 05:38:37;;;;;;;14.95;2.35;;;5.10;99.90;;;;;;5038077;28;20444;-82
2021/01/30 05:41:07;;;;;;;12.03;2.30;;;5.10;99.90;;;;;;5037995;28;20094;-81
2021/01/30 05:43:52;;;;;;;12.38;2.13;;;5.20;99.90;;;;;;5038004;28;20432;-81
2021/01/30 05:46:27;;;;;;;11.98;3.17;;;5.10;99.90;;;;;;5037797;28;20528;-82
2021/01/30 05:48:55;;;;;;;12.93;2.67;;;5.10;99.90;;;;;;5055791;28;20056;-81
2021/01/30 05:51:42;;;;;;;13.82;2.38;;;5.10;99.90;;;;;;5037815;28;20059;-81
2021/01/30 05:54:08;;;;;;;16.90;2.42;;;5.10;99.90;;;;;;5037736;28;20123;-81
2021/01/30 05:56:44;;;;;;;16.35;2.97;;;5.20;99.90;;;;;;5055551;28;20020;-81
2021/01/30 05:59:21;;;;;;;10.68;2.05;;;5.10;99.90;;;;;;5037543;28;20028;-81
2021/01/30 06:01:46;;;;;;;16.30;2.65;;;5.10;99.90;;;;;;5055507;28;20021;-81
2021/01/30 06:04:12;;;;;;;11.65;1.90;;;5.10;99.90;;;;;;5037570;28;20575;-81
2021/01/30 06:06:51;;;;;;;15.10;2.53;;;5.10;99.90;;;;;;5037490;28;20388;-81
2021/01/30 06:09:37;;;;;;;13.70;2.10;;;5.20;99.90;;;;;;5037730;28;20025;-81
2021/01/30 06:12:19;;;;;;;17.73;2.58;;;5.20;99.90;;;;;;5037434;28;20507;-81
2021/01/30 06:14:46;;;;;;;11.45;1.83;;;5.10;99.90;;;;;;5038523;28;20116;-81
2021/01/30 06:17:25;;;;;;;18.48;2.45;;;5.20;99.90;;;;;;5037324;28;20056;-81
2021/01/30 06:20:15;;;;;;;13.40;2.55;;;5.20;99.90;;;;;;5037007;28;20112;-81
2021/01/30 06:22:41;;;;;;;19.75;2.60;;;5.20;99.90;;;;;;5037189;28;20426;-81
2021/01/30 06:25:31;;;;;;;20.30;2.45;;;5.20;99.90;;;;;;5055312;28;20017;-82
2021/01/30 06:28:23;;;;;;;12.30;2.00;;;5.20;99.90;;;;;;5054971;28;20052;-81
2021/01/30 06:30:50;;;;;;;17.27;2.40;;;5.20;99.90;;;;;;5037027;28;20396;-81
2021/01/30 06:33:30;;;;;;;14.32;2.40;;;5.20;99.90;;;;;;5036942;28;20492;-81
2021/01/30 06:36:19;;;;;;;16.60;2.42;;;5.20;99.90;;;;;;5036949;28;20025;-81
2021/01/30 06:39:11;;;;;;;19.83;2.55;;;5.20;99.90;;;;;;5021502;28;20127;-81
2021/01/30 06:41:38;;;;;;;7.93;1.63;;;5.20;99.90;;;;;;5036086;28;20492;-81
2021/01/30 06:44:10;;;;;;;17.17;2.20;;;5.20;99.90;;;;;;5036700;28;20021;-81
2021/01/30 06:47:10;;;;;;;14.20;2.63;;;5.20;99.90;;;;;;5054719;28;20531;-81
2021/01/30 06:49:48;;;;;;;16.73;2.35;;;5.30;99.90;;;;;;5036689;28;20024;-81
2021/01/30 06:52:18;;;;;;;9.98;2.03;;;5.30;99.90;;;;;;5036626;28;20052;-81
2021/01/30 06:54:44;;;;;;;17.35;2.53;;;5.30;99.90;;;;;;5036661;28;20388;-81
2021/01/30 06:57:25;;;;;;;16.50;2.80;;;5.30;99.90;;;;;;5036486;28;20028;-81
2021/01/30 06:59:55;;;;;;;16.00;2.30;;;5.30;99.90;;;;;;5035994;28;20036;-81
2021/01/30 07:02:32;;;;;;;10.15;2.42;;;5.40;99.90;;;;;;5037045;28;20392;-81
2021/01/30 07:05:46;;;;;;;20.95;3.63;;;5.40;99.90;;;;;;5036459;28;20037;-81
2021/01/30 07:08:24;;;;;;;19.45;2.63;;;5.40;99.90;;;;;;5028386;28;20029;-81
2021/01/30 07:11:07;;;;;;;12.38;2.10;;;5.40;99.90;;;;;;5036623;28;20025;-81
2021/01/30 07:13:44;;;;;;;14.90;2.85;;;5.50;99.90;;;;;;5036293;28;20119;-81
2021/01/30 07:16:34;;;;;;;11.60;2.47;;;5.50;99.90;;;;;;5054095;28;20120;-81
2021/01/30 07:19:31;;;;;;;14.80;2.08;;;5.50;99.90;;;;;;5054277;28;20025;-81
2021/01/30 07:22:10;;;;;;;10.18;2.05;;;5.50;99.90;;;;;;5016890;28;20041;-81
2021/01/30 07:24:42;;;;;;;19.83;2.30;;;5.50;99.90;;;;;;5053926;28;20091;-81
2021/01/30 07:27:41;;;;;;;17.23;2.60;;;5.50;99.90;;;;;;5036049;28;20071;-81
2021/01/30 07:30:16;;;;;;;17.33;2.50;;;5.50;99.90;;;;;;5035567;28;20033;-82
2021/01/30 07:32:58;;;;;;;16.63;2.90;;;5.50;99.90;;;;;;5035829;28;20033;-82
2021/01/30 07:35:49;;;;;;;18.88;2.75;;;5.50;99.90;;;;;;5035799;28;20070;-81
2021/01/30 07:38:24;;;;;;;17.65;2.45;;;5.50;99.90;;;;;;5035718;28;20025;-82
2021/01/30 07:41:33;;;;;;;16.60;2.92;;;5.50;99.90;;;;;;5035696;28;20025;-82
2021/01/30 07:44:25;;;;;;;17.52;2.90;;;5.50;99.90;;;;;;5005414;28;20033;-82
2021/01/30 07:47:14;;;;;;;16.85;3.05;;;5.40;99.90;;;;;;5022920;28;20037;-82
2021/01/30 07:49:46;;;;;;;14.85;2.42;;;5.40;99.90;;;;;;5035694;28;20033;-82
2021/01/30 07:52:27;;;;;;;12.05;3.28;;;5.40;99.90;;;;;;5035710;28;20025;-84
2021/01/30 07:54:55;;;;;;;18.80;2.88;;;5.30;99.90;;;;;;5035702;28;20116;-83
2021/01/30 07:57:39;;;;;;;15.77;2.95;;;5.30;99.90;;;;;;5035529;28;20028;-81
2021/01/30 08:00:10;;;;;;;16.88;2.95;;;5.30;99.90;;;;;;5035506;28;20036;-82
2021/01/30 08:02:54;;;;;;;15.98;2.80;;;5.30;99.90;;;;;;5035549;28;20116;-82
2021/01/30 08:05:35;;;;;;;7.57;1.80;;;5.40;99.90;;;;;;5035589;28;20078;-82
2021/01/30 08:08:21;;;;;;;12.45;2.67;;;5.50;99.90;;;;;;5053338;28;20476;-82
2021/01/30 08:11:13;;;;;;;17.77;3.15;;;5.50;99.90;;;;;;5035958;28;20029;-82
2021/01/30 08:14:01;;;;;;;13.95;2.40;;;5.50;99.90;;;;;;5039548;28;20025;-84
2021/01/30 08:16:35;;;;;;;15.25;2.97;;;5.50;99.90;;;;;;5039636;28;20123;-83
2021/01/30 08:19:12;;;;;;;14.93;2.88;;;5.60;99.90;;;;;;5039470;28;20074;-83
2021/01/30 08:22:10;;;;;;;11.65;2.38;;;5.60;99.90;;;;;;5035899;28;20081;-84
2021/01/30 08:24:45;;;;;;;15.05;2.90;;;5.50;99.90;;;;;;5031146;28;20463;-83
2021/01/30 08:27:25;;;;;;;10.90;2.53;;;5.60;99.90;;;;;;5036066;28;20113;-83
2021/01/30 08:29:59;;;;;;;15.10;3.03;;;5.60;99.90;;;;;;5036019;28;20400;-83
2021/01/30 08:32:24;;;;;;;22.15;3.72;;;5.60;99.90;;;;;;5036040;28;20388;-83
2021/01/30 08:34:52;;;;;;;13.02;2.92;;;5.60;99.90;;;;;;5036479;28;20112;-83
2021/01/30 08:37:26;;;;;;;18.40;3.30;;;5.60;99.90;;;;;;5036885;28;20021;-84
2021/01/30 08:40:01;;;;;;;12.30;2.72;;;5.70;99.90;;;;;;5035704;28;20029;-83
2021/01/30 08:42:36;;;;;;;25.20;3.30;;;5.70;99.90;;;;;;5035691;28;20025;-83
2021/01/30 08:45:10;;;;;;;11.35;2.97;;;5.60;99.90;;;;;;5036989;28;20105;-83
2021/01/30 08:48:02;;;;;;;22.15;3.17;;;5.60;99.90;;;;;;5035721;28;20108;-83
2021/01/30 08:50:30;;;;;;;17.73;3.20;;;5.60;99.90;;;;;;5035659;28;20037;-83
2021/01/30 08:53:11;;;;;;;13.63;2.92;;;5.60;99.90;;;;;;5035568;28;20056;-83
2021/01/30 08:55:43;;;;;;;9.43;2.47;;;5.60;99.90;;;;;;5035556;28;20029;-84
2021/01/30 08:58:37;;;;;;;13.60;3.00;;;5.60;99.90;;;;;;5036731;28;20025;-84
2021/01/30 09:01:20;;;;;;;14.27;3.00;;;5.60;99.90;;;;;;5035233;28;20397;-83
2021/01/30 09:03:54;;;;;;;16.42;3.40;;;5.60;99.90;;;;;;5035408;28;20029;-84
2021/01/30 09:06:38;;;;;;;25.88;3.78;;;5.60;99.90;;;;;;5035396;28;20385;-84
2021/01/30 09:09:11;;;;;;;16.50;3.45;;;5.70;99.90;;;;;;5035259;28;20032;-84
2021/01/30 09:11:42;;;;;;;18.27;3.60;;;5.70;99.90;;;;;;5035546;28;20473;-83
2021/01/30 09:14:33;;;;;;;20.33;3.47;;;5.80;99.90;;;;;;5035197;28;20269;-83
2021/01/30 09:17:17;;;;;;;13.48;3.17;;;5.90;99.90;;;;;;5035170;28;20028;-83
2021/01/30 09:20:06;;;;;;;17.20;2.92;;;5.90;99.90;;;;;;5037263;28;20037;-84
2021/01/30 09:22:57;;;;;;;12.63;2.88;;;5.90;99.90;;;;;;5037923;28;20036;-83
2021/01/30 09:25:46;;;;;;;19.50;3.00;;;5.90;99.90;;;;;;5038218;28;20059;-84
2021/01/30 09:28:32;;;;;;;18.67;3.13;;;6.00;99.90;;;;;;4988604;28;20095;-83
2021/01/30 09:31:02;;;;;;;25.65;3.05;;;6.00;99.90;;;;;;5037976;28;20029;-83
2021/01/30 09:33:34;;;;;;;16.67;3.30;;;6.10;99.90;;;;;;5037817;28;20036;-84
2021/01/30 09:36:09;;;;;;;18.02;2.90;;;6.10;99.90;;;;;;5037813;28;20033;-83
2021/01/30 09:38:45;;;;;;;11.50;2.83;;;6.10;99.90;;;;;;5038227;28;20025;-83
2021/01/30 09:41:25;;;;;;;22.58;3.58;;;6.20;99.90;;;;;;5037771;28;20048;-83
2021/01/30 09:44:02;;;;;;;15.75;3.70;;;6.20;99.90;;;;;;5037751;28;20025;-83
2021/01/30 09:46:36;;;;;;;20.65;3.17;;;6.30;99.90;;;;;;5055593;28;20021;-83
2021/01/30 09:49:05;;;;;;;14.35;3.90;;;6.30;99.90;;;;;;5038442;28;20025;-83
2021/01/30 09:51:31;;;;;;;19.42;2.88;;;6.30;99.90;;;;;;5055663;28;20024;-83
2021/01/30 09:54:00;;;;;;;22.60;3.55;;;6.30;99.90;;;;;;5037708;28;20027;-83
2021/01/30 09:56:32;;;;;;;21.02;3.22;;;6.30;99.90;;;;;;5037686;28;20476;-83
2021/01/30 09:58:59;;;;;;;18.33;3.08;;;6.20;99.90;;;;;;5037642;28;20021;-83
2021/01/30 10:01:39;;;;;;;14.82;3.15;;;6.20;99.90;;;;;;5037596;28;20024;-83
2021/01/30 10:04:17;;;;;;;14.43;3.55;;;6.20;99.90;;;;;;5037542;28;20029;-83
2021/01/30 10:06:45;;;;;;;22.13;3.50;;;6.20;99.90;;;;;;5055427;28;20535;-83
2021/01/30 10:09:23;;;;;;;23.15;3.80;;;6.20;99.90;;;;;;5037490;28;20029;-83
2021/01/30 10:11:56;;;;;;;15.15;3.17;;;6.30;99.90;;;;;;5055298;28;20021;-83
2021/01/30 10:14:33;;;;;;;21.00;3.90;;;6.30;99.90;;;;;;5037269;28;20032;-84
2021/01/30 10:17:02;;;;;;;15.73;3.50;;;6.30;99.90;;;;;;5055551;28;20116;-84
2021/01/30 10:19:31;;;;;;;19.55;3.67;;;6.30;99.90;;;;;;5037180;28;20120;-83
2021/01/30 10:21:58;;;;;;;17.45;4.10;;;6.30;99.90;;;;;;5037099;28;20114;-84
2021/01/30 10:24:27;;;;;;;24.73;4.63;;;6.40;99.90;;;;;;5037226;28;20045;-84
2021/01/30 10:27:08;;;;;;;22.65;4.20;;;6.40;99.90;;;;;;5037043;28;20021;-84
2021/01/30 10:29:34;;;;;;;18.50;4.25;;;6.40;99.90;;;;;;5037068;28;20094;-84
2021/01/30 10:32:02;;;;;;;18.98;3.63;;;6.40;99.90;;;;;;5037004;28;20029;-84
2021/01/30 10:34:41;;;;;;;14.68;3.10;;;6.40;99.90;;;;;;5053953;28;20025;-84
2021/01/30 10:37:42;;;;;;;21.38;3.88;;;6.50;99.90;;;;;;5054686;28;20024;-84
2021/01/30 10:40:13;;;;;;;17.80;3.55;;;6.50;99.90;;;;;;5036794;28;20075;-84
2021/01/30 10:42:39;;;;;;;18.73;4.43;;;6.50;99.90;;;;;;5054605;28;20045;-84
2021/01/30 10:45:13;;;;;;;16.90;4.32;;;6.50;99.90;;;;;;5054638;28;20022;-84
2021/01/30 10:47:39;;;;;;;21.50;4.88;;;6.50;99.90;;;;;;5036817;28;20017;-84
2021/01/30 10:50:15;;;;;;;19.15;3.83;;;6.50;99.90;;;;;;5036767;28;20370;-84
2021/01/30 10:52:40;;;;;;;19.58;3.47;;;6.50;99.90;;;;;;5036721;28;20025;-91
2021/01/30 10:55:30;;;;;;;15.10;3.25;;;6.50;99.90;;;;;;5056428;28;20028;-91
2021/01/30 10:58:22;;;;;;;18.45;3.17;;;6.60;99.90;;;;;;5036799;28;20029;-84
2021/01/30 11:01:17;;;;;;;15.10;3.35;;;6.70;99.90;;;;;;4999346;28;20041;-84
2021/01/30 11:03:42;;;;;;;11.52;2.60;;;6.70;99.90;;;;;;5001015;28;20374;-84
2021/01/30 11:06:30;;;;;;;14.52;2.95;;;6.70;99.90;;;;;;5036442;28;20087;-84
2021/01/30 11:09:00;;;;;;;15.25;3.55;;;6.70;99.90;;;;;;5036354;28;20504;-84
2021/01/30 11:11:30;;;;;;;17.83;3.30;;;6.70;99.90;;;;;;5036255;28;20082;-84
2021/01/30 11:13:58;;;;;;;14.55;3.45;;;6.60;99.90;;;;;;5036463;28;20025;-84
2021/01/30 11:16:34;;;;;;;20.55;3.70;;;6.60;99.90;;;;;;5054072;28;20401;-84
2021/01/30 11:19:20;;;;;;;17.55;3.08;;;6.60;99.90;;;;;;5036090;28;20092;-84
2021/01/30 11:21:47;;;;;;;16.50;3.03;;;6.60;99.90;;;;;;5053826;28;20463;-84
2021/01/30 11:24:26;;;;;;;15.18;3.70;;;6.60;99.90;;;;;;5053989;28;20053;-84
2021/01/30 11:26:52;;;;;;;18.33;3.38;;;6.60;99.90;;;;;;5036045;28;20151;-84
2021/01/30 11:29:42;;;;;;;19.10;3.35;;;6.60;99.90;;;;;;5053870;28;20476;-84
2021/01/30 11:32:16;;;;;;;12.27;2.92;;;6.70;99.90;;;;;;5035971;28;20116;-84
2021/01/30 11:34:45;;;;;;;13.77;3.80;;;6.70;99.90;;;;;;5035913;28;20028;-84
2021/01/30 11:37:11;;;;;;;16.05;3.63;;;6.70;99.90;;;;;;5053638;28;20025;-84
2021/01/30 11:39:37;;;;;;;28.00;4.00;;;6.60;99.90;;;;;;5035754;28;20028;-84
2021/01/30 11:42:05;;;;;;;19.48;6.55;;;6.60;99.90;;;;;;5035787;28;20102;-84
2021/01/30 11:44:31;;;;;;;12.15;3.58;;;6.60;99.90;;;;;;5035610;28;20025;-84
2021/01/30 11:46:57;;;;;;;14.98;3.78;;;6.60;99.90;;;;;;5053833;28;20029;-84
2021/01/30 11:49:23;;;;;;;18.60;4.60;;;6.60;99.90;;;;;;5053617;28;20025;-84
2021/01/30 11:51:49;;;;;;;16.10;4.03;;;6.70;99.90;;;;;;5035604;28;20455;-84
2021/01/30 11:54:16;;;;;;;13.85;4.30;;;6.70;99.90;;;;;;5035586;28;20029;-84
2021/01/30 11:56:42;;;;;;;14.32;2.70;;;6.60;99.90;;;;;;5035630;28;20029;-84
2021/01/30 11:59:10;;;;;;;8.73;2.45;;;6.70;99.90;;;;;;5035439;28;20553;-84
2021/01/30 12:01:36;;;;;;;9.38;2.95;;;6.70;99.90;;;;;;5053418;28;20074;-84
2021/01/30 12:04:02;;;;;;;8.60;2.90;;;6.60;99.90;;;;;;5035530;28;20021;-84
2021/01/30 12:06:27;;;;;;;13.18;4.63;;;6.60;99.90;;;;;;5035842;28;20021;-84
2021/01/30 12:08:53;;;;;;;7.18;1.75;;;6.60;99.90;;;;;;5053622;28;20021;-84
2021/01/30 12:11:21;;;;;;;10.38;2.22;;;6.60;99.90;;;;;;5053558;28;20037;-84
2021/01/30 12:13:47;;;;;;;5.15;1.70;;;6.50;99.90;;;;;;5035436;28;20029;-84
2021/01/30 12:16:14;;;;;;;8.75;1.60;;;6.60;99.90;;;;;;5053319;28;20044;-84
2021/01/30 12:18:40;;;;;;;8.27;1.90;;;6.50;99.90;;;;;;5035343;28;20025;-83
2021/01/30 12:21:06;;;;;;;9.60;1.85;;;6.50;99.90;;;;;;5053175;28;20127;-85
2021/01/30 12:23:32;;;;;;;8.80;2.40;;;6.50;99.90;;;;;;5035319;28;20021;-85
2021/01/30 12:25:59;;;;;;;10.25;2.58;;;6.40;99.90;;;;;;5053220;28;20028;-85
2021/01/30 12:28:29;;;;;;;3.50;1.80;;;6.30;99.90;;;;;;5035377;28;20025;-85
2021/01/30 12:30:55;;;;;;;6.40;1.73;;;6.30;99.90;;;;;;5035209;28;20028;-85
2021/01/30 12:33:21;;;;;;;7.35;2.22;;;6.30;99.90;;;;;;5035543;28;20025;-85
2021/01/30 12:35:47;;;;;;;10.23;2.13;;;6.30;99.90;;;;;;5035199;28;20028;-85
2021/01/30 12:38:13;;;;;;;11.43;2.03;;;6.30;99.90;;;;;;5035272;28;20112;-85
2021/01/30 12:40:46;;;;;;;10.05;2.08;;;6.30;99.90;;;;;;5052990;28;20108;-85
2021/01/30 12:43:12;;;;;;;10.57;2.13;;;6.30;99.90;;;;;;5035184;28;20029;-85
2021/01/30 12:45:39;;;;;;;7.10;2.25;;;6.30;99.90;;;;;;5035197;28;20017;-85
2021/01/30 12:48:06;;;;;;;5.55;2.08;;;6.30;99.90;;;;;;5053016;28;20075;-85
2021/01/30 12:50:32;;;;;;;5.28;2.13;;;6.30;99.90;;;;;;5052957;28;20021;-85
2021/01/30 12:52:58;;;;;;;11.77;2.45;;;6.30;99.90;;;;;;5052962;28;20028;-85
2021/01/30 12:55:25;;;;;;;6.85;2.20;;;6.30;99.90;;;;;;5035074;28;20481;-85
2021/01/30 12:57:50;;;;;;;7.80;2.42;;;6.30;99.90;;;;;;5037513;28;20036;-85
2021/01/30 13:00:25;;;;;;;7.82;3.17;;;6.20;99.90;;;;;;5038842;28;20029;-85
2021/01/30 13:02:51;;;;;;;11.68;2.30;;;6.20;99.90;;;;;;5038848;28;20021;-85
2021/01/30 13:05:19;;;;;;;10.88;2.90;;;6.10;99.90;;;;;;5038643;28;20017;-85
2021/01/30 13:07:45;;;;;;;10.27;2.58;;;6.10;99.90;;;;;;5038592;28;20021;-85
2021/01/30 13:10:15;;;;;;;9.15;2.10;;;6.00;99.90;;;;;;5038536;28;20033;-85
2021/01/30 13:12:41;;;;;;;11.82;3.00;;;6.00;99.90;;;;;;5038519;28;20025;-87
2021/01/30 13:15:08;;;;;;;18.65;8.30;;;6.00;99.90;;;;;;5056436;28;20025;-86
2021/01/30 13:17:34;;;;;;;14.38;2.60;;;6.00;99.90;;;;;;5038538;28;20025;-86
2021/01/30 13:20:00;;;;;;;17.42;4.72;;;6.00;99.90;;;;;;5037996;28;20365;-86
2021/01/30 13:22:26;;;;;;;21.92;6.90;;;6.00;99.90;;;;;;5038426;28;20128;-86